Página principal
METAR-TAF:

METAR-TAF

Aeroportos :

Aeroporto Internacional de Lárnaca

Larnaca, Chipre

latitude: 34-53N, longitude: 033-38E, altura: 2 m

Observação actual do tempo

O boletim foi feito há 22 minutos, às 02:30 UTC
Vento 4 kt de noroeste, variando entre oeste e nor-noroeste
Temperatura 22°C
Humidade 88%
Pressão 1009 hPa
Visibilidade 10 km ou mais
sem nuvens abaixo de 1500 metros e sem cumulonimbus

METAR: LCLK 240230Z 32004KT 280V340 CAVOK 22/20 Q1009 NOSIG

Hora: 05:52 (02:52 UTC)

Previsão

O boletim foi feito há 3 horas e 22 minutos, às 23:30 UTC
Previsão válida de 24 às 00 UTC a 24 às 24 UTC
Vento 8 kt de noroeste
Visibilidade 10 km ou mais
Poucas nuvensa uma altura de 2000 ft
Tornando-se
de 24 às 08 UTC a 24 às 11 UTC
Vento 20 kt de sudoeste
Tornando-se
de 24 às 16 UTC a 24 às 20 UTC
Vento 8 kt de noroeste

TAF: LCLK 232330Z 2400/2424 32008KT 9999 FEW020 BECMG 2408/2411 22020KT BECMG 2416/2420 32008KT

Observações e previsões do tempo de mais de 4000 aeroportos (mensagens METAR e TAF).

As estações disponíveis são os pontos amarelos e vermelhos sobre o mapa.

Mova o rato sobre o mapa para ver o nome da estação.

Depois clique no ponto para visualizar as observações e previsões meteorológicas.

Para alterar o mapa : clique nos botões verdes com uma cruz preta para aumentar o zoom; no botão verde com uma pitada de zoom; ou nas setas verdes para mapas adjacentes.


METAR-TAF: